sensor_id;sensor_type;location;lat;lon;timestamp;temperature;humidity
11991;DHT22;6055;52.522;13.446;2023-03-18T00:01:53;9.60;81.40
11991;DHT22;6055;52.522;13.446;2023-03-18T00:04:19;9.60;81.50
11991;DHT22;6055;52.522;13.446;2023-03-18T00:06:44;9.60;81.30
11991;DHT22;6055;52.522;13.446;2023-03-18T00:09:10;9.60;81.10
11991;DHT22;6055;52.522;13.446;2023-03-18T00:11:38;9.50;81.80
11991;DHT22;6055;52.522;13.446;2023-03-18T00:14:05;9.50;81.00
11991;DHT22;6055;52.522;13.446;2023-03-18T00:16:33;9.50;81.30
11991;DHT22;6055;52.522;13.446;2023-03-18T00:18:59;9.50;81.00
11991;DHT22;6055;52.522;13.446;2023-03-18T00:21:27;9.50;81.00
11991;DHT22;6055;52.522;13.446;2023-03-18T00:23:52;9.50;81.50
11991;DHT22;6055;52.522;13.446;2023-03-18T00:26:24;9.50;81.10
11991;DHT22;6055;52.522;13.446;2023-03-18T00:28:50;9.50;81.40
11991;DHT22;6055;52.522;13.446;2023-03-18T00:31:16;9.40;81.40
11991;DHT22;6055;52.522;13.446;2023-03-18T00:33:43;9.40;81.70
11991;DHT22;6055;52.522;13.446;2023-03-18T00:36:11;9.40;81.50
11991;DHT22;6055;52.522;13.446;2023-03-18T00:38:41;9.40;81.50
11991;DHT22;6055;52.522;13.446;2023-03-18T00:41:08;9.40;81.30
11991;DHT22;6055;52.522;13.446;2023-03-18T00:43:45;9.40;81.40
11991;DHT22;6055;52.522;13.446;2023-03-18T00:46:18;9.40;81.50
11991;DHT22;6055;52.522;13.446;2023-03-18T00:48:44;9.30;81.80
11991;DHT22;6055;52.522;13.446;2023-03-18T00:51:11;9.30;81.50
11991;DHT22;6055;52.522;13.446;2023-03-18T00:53:50;9.30;81.60
11991;DHT22;6055;52.522;13.446;2023-03-18T00:56:17;9.30;81.70
11991;DHT22;6055;52.522;13.446;2023-03-18T00:58:43;9.20;82.00
11991;DHT22;6055;52.522;13.446;2023-03-18T01:01:10;9.20;82.40
11991;DHT22;6055;52.522;13.446;2023-03-18T01:03:37;9.20;81.80
11991;DHT22;6055;52.522;13.446;2023-03-18T01:06:04;9.20;81.80
11991;DHT22;6055;52.522;13.446;2023-03-18T01:08:30;9.20;81.60
11991;DHT22;6055;52.522;13.446;2023-03-18T01:10:56;9.20;82.50
11991;DHT22;6055;52.522;13.446;2023-03-18T01:13:22;9.10;82.80
11991;DHT22;6055;52.522;13.446;2023-03-18T01:15:50;9.10;82.50
11991;DHT22;6055;52.522;13.446;2023-03-18T01:18:16;9.10;82.10
11991;DHT22;6055;52.522;13.446;2023-03-18T01:20:42;9.10;82.20
11991;DHT22;6055;52.522;13.446;2023-03-18T01:23:10;9.00;81.90
11991;DHT22;6055;52.522;13.446;2023-03-18T01:25:38;9.00;82.40
11991;DHT22;6055;52.522;13.446;2023-03-18T01:28:04;9.10;81.90
11991;DHT22;6055;52.522;13.446;2023-03-18T01:30:30;9.00;82.20
11991;DHT22;6055;52.522;13.446;2023-03-18T01:32:56;9.10;82.30
11991;DHT22;6055;52.522;13.446;2023-03-18T01:35:23;9.00;82.30
11991;DHT22;6055;52.522;13.446;2023-03-18T01:37:50;9.00;82.40
11991;DHT22;6055;52.522;13.446;2023-03-18T01:40:15;9.10;82.50
11991;DHT22;6055;52.522;13.446;2023-03-18T01:42:45;9.00;82.90
11991;DHT22;6055;52.522;13.446;2023-03-18T01:45:18;9.00;82.80
11991;DHT22;6055;52.522;13.446;2023-03-18T01:47:44;9.00;82.20
11991;DHT22;6055;52.522;13.446;2023-03-18T01:50:12;9.00;82.30
11991;DHT22;6055;52.522;13.446;2023-03-18T01:52:38;9.00;82.70
11991;DHT22;6055;52.522;13.446;2023-03-18T01:55:14;9.00;82.70
11991;DHT22;6055;52.522;13.446;2023-03-18T01:57:40;9.00;82.30
11991;DHT22;6055;52.522;13.446;2023-03-18T02:00:07;9.00;82.50
11991;DHT22;6055;52.522;13.446;2023-03-18T02:02:36;9.00;82.50
11991;DHT22;6055;52.522;13.446;2023-03-18T02:05:04;9.00;82.10
11991;DHT22;6055;52.522;13.446;2023-03-18T02:07:33;9.00;82.50
11991;DHT22;6055;52.522;13.446;2023-03-18T02:10:03;9.00;82.90
11991;DHT22;6055;52.522;13.446;2023-03-18T02:12:36;9.00;82.50
11991;DHT22;6055;52.522;13.446;2023-03-18T02:15:06;9.00;83.30
11991;DHT22;6055;52.522;13.446;2023-03-18T02:17:34;9.00;82.50
11991;DHT22;6055;52.522;13.446;2023-03-18T02:20:16;9.00;82.70
11991;DHT22;6055;52.522;13.446;2023-03-18T02:22:49;8.90;82.70
11991;DHT22;6055;52.522;13.446;2023-03-18T02:28:40;8.90;82.70
11991;DHT22;6055;52.522;13.446;2023-03-18T02:31:10;8.90;82.70
11991;DHT22;6055;52.522;13.446;2023-03-18T02:33:39;9.00;82.90
11991;DHT22;6055;52.522;13.446;2023-03-18T02:36:13;9.00;82.80
11991;DHT22;6055;52.522;13.446;2023-03-18T02:38:42;9.00;82.40
11991;DHT22;6055;52.522;13.446;2023-03-18T02:41:23;8.90;82.90
11991;DHT22;6055;52.522;13.446;2023-03-18T02:43:49;8.90;82.50
11991;DHT22;6055;52.522;13.446;2023-03-18T02:46:24;9.00;82.30
11991;DHT22;6055;52.522;13.446;2023-03-18T02:48:51;8.90;82.30
11991;DHT22;6055;52.522;13.446;2023-03-18T02:51:17;8.90;82.70
11991;DHT22;6055;52.522;13.446;2023-03-18T02:53:46;8.90;82.30
11991;DHT22;6055;52.522;13.446;2023-03-18T02:56:12;8.90;82.30
11991;DHT22;6055;52.522;13.446;2023-03-18T02:58:38;8.90;82.30
11991;DHT22;6055;52.522;13.446;2023-03-18T03:01:05;8.90;82.10
11991;DHT22;6055;52.522;13.446;2023-03-18T03:03:31;8.90;82.10
11991;DHT22;6055;52.522;13.446;2023-03-18T03:05:56;8.90;82.20
11991;DHT22;6055;52.522;13.446;2023-03-18T03:08:23;8.90;82.10
11991;DHT22;6055;52.522;13.446;2023-03-18T03:10:49;8.90;82.70
11991;DHT22;6055;52.522;13.446;2023-03-18T03:13:17;8.90;82.10
11991;DHT22;6055;52.522;13.446;2023-03-18T03:15:42;8.90;82.50
11991;DHT22;6055;52.522;13.446;2023-03-18T03:18:08;8.80;82.20
11991;DHT22;6055;52.522;13.446;2023-03-18T03:20:35;8.80;82.20
11991;DHT22;6055;52.522;13.446;2023-03-18T03:23:06;8.80;82.10
11991;DHT22;6055;52.522;13.446;2023-03-18T03:25:32;8.80;82.20
11991;DHT22;6055;52.522;13.446;2023-03-18T03:27:58;8.80;82.30
11991;DHT22;6055;52.522;13.446;2023-03-18T03:30:24;8.80;82.30
11991;DHT22;6055;52.522;13.446;2023-03-18T03:32:50;8.90;82.60
11991;DHT22;6055;52.522;13.446;2023-03-18T03:35:17;8.80;82.60
11991;DHT22;6055;52.522;13.446;2023-03-18T03:37:43;8.80;82.50
11991;DHT22;6055;52.522;13.446;2023-03-18T03:40:13;8.80;83.00
11991;DHT22;6055;52.522;13.446;2023-03-18T03:42:40;8.80;82.90
11991;DHT22;6055;52.522;13.446;2023-03-18T03:45:07;8.80;82.70
11991;DHT22;6055;52.522;13.446;2023-03-18T03:47:33;8.80;82.80
11991;DHT22;6055;52.522;13.446;2023-03-18T03:49:59;8.80;83.00
11991;DHT22;6055;52.522;13.446;2023-03-18T03:52:24;8.80;82.90
11991;DHT22;6055;52.522;13.446;2023-03-18T03:54:50;8.80;83.20
11991;DHT22;6055;52.522;13.446;2023-03-18T03:57:16;8.80;83.20
11991;DHT22;6055;52.522;13.446;2023-03-18T03:59:41;8.70;83.30
11991;DHT22;6055;52.522;13.446;2023-03-18T04:02:07;8.70;83.10
11991;DHT22;6055;52.522;13.446;2023-03-18T04:04:33;8.70;83.10
11991;DHT22;6055;52.522;13.446;2023-03-18T04:06:59;8.70;83.60
11991;DHT22;6055;52.522;13.446;2023-03-18T04:09:25;8.70;83.70
11991;DHT22;6055;52.522;13.446;2023-03-18T04:11:50;8.70;83.70
11991;DHT22;6055;52.522;13.446;2023-03-18T04:14:18;8.70;83.70
11991;DHT22;6055;52.522;13.446;2023-03-18T04:16:43;8.70;83.70
11991;DHT22;6055;52.522;13.446;2023-03-18T04:19:09;8.70;83.60
11991;DHT22;6055;52.522;13.446;2023-03-18T04:21:35;8.70;83.90
11991;DHT22;6055;52.522;13.446;2023-03-18T04:24:02;8.60;84.00
11991;DHT22;6055;52.522;13.446;2023-03-18T04:26:28;8.70;83.60
11991;DHT22;6055;52.522;13.446;2023-03-18T04:28:55;8.60;84.40
11991;DHT22;6055;52.522;13.446;2023-03-18T04:31:21;8.60;84.20
11991;DHT22;6055;52.522;13.446;2023-03-18T04:33:46;8.60;84.50
11991;DHT22;6055;52.522;13.446;2023-03-18T04:36:12;8.60;84.00
11991;DHT22;6055;52.522;13.446;2023-03-18T04:38:38;8.60;84.50
11991;DHT22;6055;52.522;13.446;2023-03-18T04:41:04;8.60;84.00
11991;DHT22;6055;52.522;13.446;2023-03-18T04:43:31;8.60;83.90
11991;DHT22;6055;52.522;13.446;2023-03-18T04:45:56;8.60;83.90
11991;DHT22;6055;52.522;13.446;2023-03-18T04:48:22;8.60;84.10
11991;DHT22;6055;52.522;13.446;2023-03-18T04:50:48;8.60;84.40
11991;DHT22;6055;52.522;13.446;2023-03-18T04:53:13;8.60;84.30
11991;DHT22;6055;52.522;13.446;2023-03-18T04:55:42;8.60;84.80
11991;DHT22;6055;52.522;13.446;2023-03-18T04:58:08;8.50;84.80
11991;DHT22;6055;52.522;13.446;2023-03-18T05:00:34;8.50;84.70
11991;DHT22;6055;52.522;13.446;2023-03-18T05:02:59;8.50;85.30
11991;DHT22;6055;52.522;13.446;2023-03-18T05:05:26;8.50;85.20
11991;DHT22;6055;52.522;13.446;2023-03-18T05:07:52;8.40;85.60
11991;DHT22;6055;52.522;13.446;2023-03-18T05:10:17;8.50;85.40
11991;DHT22;6055;52.522;13.446;2023-03-18T05:12:43;8.40;85.50
11991;DHT22;6055;52.522;13.446;2023-03-18T05:15:09;8.40;85.70
11991;DHT22;6055;52.522;13.446;2023-03-18T05:17:35;8.40;86.10
11991;DHT22;6055;52.522;13.446;2023-03-18T05:20:01;8.40;85.90
11991;DHT22;6055;52.522;13.446;2023-03-18T05:22:28;8.30;86.20
11991;DHT22;6055;52.522;13.446;2023-03-18T05:24:54;8.30;86.50
11991;DHT22;6055;52.522;13.446;2023-03-18T05:27:20;8.30;86.90
11991;DHT22;6055;52.522;13.446;2023-03-18T05:29:45;8.30;86.60
11991;DHT22;6055;52.522;13.446;2023-03-18T05:32:11;8.30;87.30
11991;DHT22;6055;52.522;13.446;2023-03-18T05:34:40;8.20;87.40
11991;DHT22;6055;52.522;13.446;2023-03-18T05:37:10;8.20;88.00
11991;DHT22;6055;52.522;13.446;2023-03-18T05:39:36;8.30;88.20
11991;DHT22;6055;52.522;13.446;2023-03-18T05:42:03;8.20;87.90
11991;DHT22;6055;52.522;13.446;2023-03-18T05:44:29;8.20;87.80
11991;DHT22;6055;52.522;13.446;2023-03-18T05:46:58;8.20;87.90
11991;DHT22;6055;52.522;13.446;2023-03-18T05:49:24;8.20;88.20
11991;DHT22;6055;52.522;13.446;2023-03-18T05:51:49;8.20;88.40
11991;DHT22;6055;52.522;13.446;2023-03-18T05:54:15;8.20;88.50
11991;DHT22;6055;52.522;13.446;2023-03-18T05:56:44;8.20;88.90
11991;DHT22;6055;52.522;13.446;2023-03-18T05:59:10;8.30;88.60
11991;DHT22;6055;52.522;13.446;2023-03-18T06:01:36;8.30;88.60
11991;DHT22;6055;52.522;13.446;2023-03-18T06:04:02;8.30;88.90
11991;DHT22;6055;52.522;13.446;2023-03-18T06:06:31;8.30;88.90
11991;DHT22;6055;52.522;13.446;2023-03-18T06:08:56;8.30;88.50
11991;DHT22;6055;52.522;13.446;2023-03-18T06:11:22;8.30;88.40
11991;DHT22;6055;52.522;13.446;2023-03-18T06:13:48;8.30;88.90
11991;DHT22;6055;52.522;13.446;2023-03-18T06:16:14;8.30;89.00
11991;DHT22;6055;52.522;13.446;2023-03-18T06:18:39;8.30;88.60
11991;DHT22;6055;52.522;13.446;2023-03-18T06:21:08;8.30;89.10
11991;DHT22;6055;52.522;13.446;2023-03-18T06:23:34;8.40;89.00
11991;DHT22;6055;52.522;13.446;2023-03-18T06:26:00;8.40;89.20
11991;DHT22;6055;52.522;13.446;2023-03-18T06:28:26;8.40;89.20
11991;DHT22;6055;52.522;13.446;2023-03-18T06:30:55;8.40;89.30
11991;DHT22;6055;52.522;13.446;2023-03-18T06:33:21;8.40;89.40
11991;DHT22;6055;52.522;13.446;2023-03-18T06:35:47;8.40;89.00
11991;DHT22;6055;52.522;13.446;2023-03-18T06:38:14;8.40;89.20
11991;DHT22;6055;52.522;13.446;2023-03-18T06:40:43;8.40;89.50
11991;DHT22;6055;52.522;13.446;2023-03-18T06:43:09;8.40;89.30
11991;DHT22;6055;52.522;13.446;2023-03-18T06:45:35;8.40;89.30
11991;DHT22;6055;52.522;13.446;2023-03-18T06:48:01;8.40;89.50
11991;DHT22;6055;52.522;13.446;2023-03-18T06:50:27;8.40;89.40
11991;DHT22;6055;52.522;13.446;2023-03-18T06:52:52;8.40;89.90
11991;DHT22;6055;52.522;13.446;2023-03-18T06:55:18;8.50;89.80
11991;DHT22;6055;52.522;13.446;2023-03-18T06:57:44;8.50;89.90
11991;DHT22;6055;52.522;13.446;2023-03-18T07:00:10;8.50;89.70
11991;DHT22;6055;52.522;13.446;2023-03-18T07:02:37;8.50;89.80
11991;DHT22;6055;52.522;13.446;2023-03-18T07:05:03;8.50;90.00
11991;DHT22;6055;52.522;13.446;2023-03-18T07:07:29;8.60;90.00
11991;DHT22;6055;52.522;13.446;2023-03-18T07:09:54;8.60;89.90
11991;DHT22;6055;52.522;13.446;2023-03-18T07:12:20;8.60;89.40
11991;DHT22;6055;52.522;13.446;2023-03-18T07:14:45;8.70;89.40
11991;DHT22;6055;52.522;13.446;2023-03-18T07:17:11;8.70;89.60
11991;DHT22;6055;52.522;13.446;2023-03-18T07:19:38;8.80;90.00
11991;DHT22;6055;52.522;13.446;2023-03-18T07:22:04;8.80;89.90
11991;DHT22;6055;52.522;13.446;2023-03-18T07:24:30;8.90;89.30
11991;DHT22;6055;52.522;13.446;2023-03-18T07:26:55;8.90;89.20
11991;DHT22;6055;52.522;13.446;2023-03-18T07:29:21;9.00;89.20
11991;DHT22;6055;52.522;13.446;2023-03-18T07:31:46;9.00;89.40
11991;DHT22;6055;52.522;13.446;2023-03-18T07:34:13;9.10;89.20
11991;DHT22;6055;52.522;13.446;2023-03-18T07:36:39;9.10;88.90
11991;DHT22;6055;52.522;13.446;2023-03-18T07:39:06;9.10;89.00
11991;DHT22;6055;52.522;13.446;2023-03-18T07:41:32;9.20;88.90
11991;DHT22;6055;52.522;13.446;2023-03-18T07:43:57;9.30;89.00
11991;DHT22;6055;52.522;13.446;2023-03-18T07:46:23;9.30;89.00
11991;DHT22;6055;52.522;13.446;2023-03-18T07:48:48;9.30;89.20
11991;DHT22;6055;52.522;13.446;2023-03-18T07:51:14;9.30;89.60
11991;DHT22;6055;52.522;13.446;2023-03-18T07:53:41;9.40;89.70
11991;DHT22;6055;52.522;13.446;2023-03-18T07:56:07;9.40;89.20
11991;DHT22;6055;52.522;13.446;2023-03-18T07:58:34;9.50;89.70
11991;DHT22;6055;52.522;13.446;2023-03-18T08:01:00;9.60;89.20
11991;DHT22;6055;52.522;13.446;2023-03-18T08:03:26;9.70;89.40
11991;DHT22;6055;52.522;13.446;2023-03-18T08:05:52;9.70;89.40
11991;DHT22;6055;52.522;13.446;2023-03-18T08:08:21;9.70;89.30
11991;DHT22;6055;52.522;13.446;2023-03-18T08:10:47;9.80;89.30
11991;DHT22;6055;52.522;13.446;2023-03-18T08:13:12;9.90;89.00
11991;DHT22;6055;52.522;13.446;2023-03-18T08:15:38;9.90;89.20
11991;DHT22;6055;52.522;13.446;2023-03-18T08:18:04;10.00;89.80
11991;DHT22;6055;52.522;13.446;2023-03-18T08:20:29;10.00;89.40
11991;DHT22;6055;52.522;13.446;2023-03-18T08:22:55;10.10;89.50
11991;DHT22;6055;52.522;13.446;2023-03-18T08:25:21;10.10;89.50
11991;DHT22;6055;52.522;13.446;2023-03-18T08:27:48;10.20;89.70
11991;DHT22;6055;52.522;13.446;2023-03-18T08:30:14;10.20;89.60
11991;DHT22;6055;52.522;13.446;2023-03-18T08:32:41;10.30;90.00
11991;DHT22;6055;52.522;13.446;2023-03-18T08:35:07;10.30;90.00
11991;DHT22;6055;52.522;13.446;2023-03-18T08:37:35;10.50;89.70
11991;DHT22;6055;52.522;13.446;2023-03-18T08:40:02;10.50;89.40
11991;DHT22;6055;52.522;13.446;2023-03-18T08:42:28;10.60;89.40
11991;DHT22;6055;52.522;13.446;2023-03-18T08:44:53;10.70;89.90
11991;DHT22;6055;52.522;13.446;2023-03-18T08:47:19;10.80;89.80
11991;DHT22;6055;52.522;13.446;2023-03-18T08:49:45;10.90;89.80
11991;DHT22;6055;52.522;13.446;2023-03-18T08:52:11;11.10;89.80
11991;DHT22;6055;52.522;13.446;2023-03-18T08:54:36;11.30;89.60
11991;DHT22;6055;52.522;13.446;2023-03-18T08:57:02;11.50;90.00
11991;DHT22;6055;52.522;13.446;2023-03-18T08:59:27;11.70;89.70
11991;DHT22;6055;52.522;13.446;2023-03-18T09:01:53;11.90;89.10
11991;DHT22;6055;52.522;13.446;2023-03-18T09:04:18;12.00;88.60
11991;DHT22;6055;52.522;13.446;2023-03-18T09:06:44;12.10;88.60
11991;DHT22;6055;52.522;13.446;2023-03-18T09:09:10;12.20;87.70
11991;DHT22;6055;52.522;13.446;2023-03-18T09:11:36;12.30;88.10
11991;DHT22;6055;52.522;13.446;2023-03-18T09:14:03;12.30;88.10
11991;DHT22;6055;52.522;13.446;2023-03-18T09:16:28;12.40;87.90
11991;DHT22;6055;52.522;13.446;2023-03-18T09:18:54;12.30;87.80
11991;DHT22;6055;52.522;13.446;2023-03-18T09:21:19;12.40;88.10
11991;DHT22;6055;52.522;13.446;2023-03-18T09:23:45;12.50;87.80
11991;DHT22;6055;52.522;13.446;2023-03-18T09:26:10;12.50;87.90
11991;DHT22;6055;52.522;13.446;2023-03-18T09:28:36;12.60;87.80
11991;DHT22;6055;52.522;13.446;2023-03-18T09:31:01;12.60;87.40
11991;DHT22;6055;52.522;13.446;2023-03-18T09:33:28;12.60;87.00
11991;DHT22;6055;52.522;13.446;2023-03-18T09:35:53;12.60;87.60
11991;DHT22;6055;52.522;13.446;2023-03-18T09:38:19;12.60;87.60
11991;DHT22;6055;52.522;13.446;2023-03-18T09:41:20;12.60;87.70
11991;DHT22;6055;52.522;13.446;2023-03-18T09:46:39;12.60;88.10
11991;DHT22;6055;52.522;13.446;2023-03-18T09:49:22;12.60;88.10
11991;DHT22;6055;52.522;13.446;2023-03-18T09:55:31;12.80;88.10
11991;DHT22;6055;52.522;13.446;2023-03-18T09:58:02;12.80;88.20
11991;DHT22;6055;52.522;13.446;2023-03-18T10:00:36;12.90;88.50
11991;DHT22;6055;52.522;13.446;2023-03-18T10:03:28;13.00;88.40
11991;DHT22;6055;52.522;13.446;2023-03-18T10:06:04;13.10;88.70
11991;DHT22;6055;52.522;13.446;2023-03-18T10:11:38;13.30;88.20
11991;DHT22;6055;52.522;13.446;2023-03-18T10:17:01;13.60;87.70
11991;DHT22;6055;52.522;13.446;2023-03-18T10:19:30;13.70;87.50
11991;DHT22;6055;52.522;13.446;2023-03-18T10:24:43;14.00;87.10
11991;DHT22;6055;52.522;13.446;2023-03-18T10:29:52;14.40;86.90
11991;DHT22;6055;52.522;13.446;2023-03-18T10:40:35;15.00;85.30
11991;DHT22;6055;52.522;13.446;2023-03-18T10:43:02;15.10;86.70
11991;DHT22;6055;52.522;13.446;2023-03-18T10:45:30;15.00;85.70
11991;DHT22;6055;52.522;13.446;2023-03-18T10:48:19;15.10;85.90
11991;DHT22;6055;52.522;13.446;2023-03-18T10:53:48;15.20;86.00
11991;DHT22;6055;52.522;13.446;2023-03-18T10:56:17;15.30;85.70
11991;DHT22;6055;52.522;13.446;2023-03-18T10:58:43;15.40;86.20
11991;DHT22;6055;52.522;13.446;2023-03-18T11:01:11;15.60;86.30
11991;DHT22;6055;52.522;13.446;2023-03-18T11:03:59;15.70;86.30
11991;DHT22;6055;52.522;13.446;2023-03-18T11:06:35;15.90;86.10
11991;DHT22;6055;52.522;13.446;2023-03-18T11:09:09;16.30;85.90
11991;DHT22;6055;52.522;13.446;2023-03-18T11:11:39;17.00;85.40
11991;DHT22;6055;52.522;13.446;2023-03-18T11:14:06;17.80;82.70
11991;DHT22;6055;52.522;13.446;2023-03-18T11:16:41;18.60;81.20
11991;DHT22;6055;52.522;13.446;2023-03-18T11:19:28;19.70;78.70
11991;DHT22;6055;52.522;13.446;2023-03-18T11:24:32;20.00;75.80
11991;DHT22;6055;52.522;13.446;2023-03-18T11:27:01;19.50;76.60
11991;DHT22;6055;52.522;13.446;2023-03-18T11:29:30;18.80;78.90
11991;DHT22;6055;52.522;13.446;2023-03-18T11:31:58;18.60;79.10
11991;DHT22;6055;52.522;13.446;2023-03-18T11:34:29;18.40;79.00
11991;DHT22;6055;52.522;13.446;2023-03-18T11:39:27;17.70;82.00
11991;DHT22;6055;52.522;13.446;2023-03-18T11:41:59;17.60;82.40
11991;DHT22;6055;52.522;13.446;2023-03-18T11:44:31;17.50;83.20
11991;DHT22;6055;52.522;13.446;2023-03-18T11:47:18;17.30;84.10
11991;DHT22;6055;52.522;13.446;2023-03-18T11:49:46;17.20;85.00
11991;DHT22;6055;52.522;13.446;2023-03-18T11:52:45;17.10;85.00
11991;DHT22;6055;52.522;13.446;2023-03-18T11:56:17;17.20;85.60
11991;DHT22;6055;52.522;13.446;2023-03-18T12:01:33;17.60;85.60
11991;DHT22;6055;52.522;13.446;2023-03-18T12:07:50;18.60;85.20
11991;DHT22;6055;52.522;13.446;2023-03-18T12:10:23;20.00;81.80
11991;DHT22;6055;52.522;13.446;2023-03-18T12:32:43;22.30;74.70
11991;DHT22;6055;52.522;13.446;2023-03-18T12:38:38;22.50;73.70
11991;DHT22;6055;52.522;13.446;2023-03-18T12:47:21;22.70;72.80
11991;DHT22;6055;52.522;13.446;2023-03-18T12:50:08;23.00;72.90
11991;DHT22;6055;52.522;13.446;2023-03-18T12:55:34;22.80;73.10
11991;DHT22;6055;52.522;13.446;2023-03-18T12:58:23;22.90;73.40
11991;DHT22;6055;52.522;13.446;2023-03-18T13:01:11;22.90;73.00
11991;DHT22;6055;52.522;13.446;2023-03-18T13:03:46;23.00;72.60
11991;DHT22;6055;52.522;13.446;2023-03-18T13:06:35;23.10;72.80
11991;DHT22;6055;52.522;13.446;2023-03-18T13:12:26;21.10;76.80
11991;DHT22;6055;52.522;13.446;2023-03-18T13:15:03;20.10;79.20
11991;DHT22;6055;52.522;13.446;2023-03-18T13:17:41;19.60;80.20
11991;DHT22;6055;52.522;13.446;2023-03-18T13:20:22;19.70;80.40
11991;DHT22;6055;52.522;13.446;2023-03-18T13:26:09;20.80;79.30
11991;DHT22;6055;52.522;13.446;2023-03-18T13:37:07;22.80;75.70
11991;DHT22;6055;52.522;13.446;2023-03-18T13:42:34;23.10;74.80
11991;DHT22;6055;52.522;13.446;2023-03-18T13:45:32;23.00;75.10
11991;DHT22;6055;52.522;13.446;2023-03-18T13:48:20;22.90;74.80
11991;DHT22;6055;52.522;13.446;2023-03-18T13:50:47;22.90;75.40
11991;DHT22;6055;52.522;13.446;2023-03-18T13:53:30;23.00;75.50
11991;DHT22;6055;52.522;13.446;2023-03-18T13:58:43;23.00;75.40
11991;DHT22;6055;52.522;13.446;2023-03-18T14:01:30;23.00;75.80
11991;DHT22;6055;52.522;13.446;2023-03-18T14:04:25;22.70;75.90
11991;DHT22;6055;52.522;13.446;2023-03-18T14:07:14;22.20;76.90
11991;DHT22;6055;52.522;13.446;2023-03-18T14:15:02;21.70;79.00
11991;DHT22;6055;52.522;13.446;2023-03-18T14:22:46;22.00;78.70
11991;DHT22;6055;52.522;13.446;2023-03-18T14:27:54;22.50;77.60
11991;DHT22;6055;52.522;13.446;2023-03-18T14:30:42;22.50;77.50
11991;DHT22;6055;52.522;13.446;2023-03-18T14:35:55;22.10;78.50
11991;DHT22;6055;52.522;13.446;2023-03-18T14:38:23;22.00;78.90
11991;DHT22;6055;52.522;13.446;2023-03-18T14:40:53;21.90;79.80
11991;DHT22;6055;52.522;13.446;2023-03-18T14:43:25;21.90;79.20
11991;DHT22;6055;52.522;13.446;2023-03-18T14:45:54;21.70;79.50
11991;DHT22;6055;52.522;13.446;2023-03-18T14:48:27;21.40;79.80
11991;DHT22;6055;52.522;13.446;2023-03-18T14:50:56;21.00;80.70
11991;DHT22;6055;52.522;13.446;2023-03-18T14:53:32;20.50;82.00
11991;DHT22;6055;52.522;13.446;2023-03-18T14:56:00;20.00;83.10
11991;DHT22;6055;52.522;13.446;2023-03-18T14:58:27;19.60;84.00
11991;DHT22;6055;52.522;13.446;2023-03-18T15:00:55;19.30;84.60
11991;DHT22;6055;52.522;13.446;2023-03-18T15:03:24;19.10;85.60
11991;DHT22;6055;52.522;13.446;2023-03-18T15:05:54;18.80;86.20
11991;DHT22;6055;52.522;13.446;2023-03-18T15:08:25;18.70;86.60
11991;DHT22;6055;52.522;13.446;2023-03-18T15:10:51;18.50;87.90
11991;DHT22;6055;52.522;13.446;2023-03-18T15:13:18;18.50;88.40
11991;DHT22;6055;52.522;13.446;2023-03-18T15:15:44;18.60;89.00
11991;DHT22;6055;52.522;13.446;2023-03-18T15:21:08;19.20;88.50
11991;DHT22;6055;52.522;13.446;2023-03-18T15:23:51;19.50;87.40
11991;DHT22;6055;52.522;13.446;2023-03-18T15:26:33;19.50;86.70
11991;DHT22;6055;52.522;13.446;2023-03-18T15:29:03;19.40;86.90
11991;DHT22;6055;52.522;13.446;2023-03-18T15:31:43;19.40;87.10
11991;DHT22;6055;52.522;13.446;2023-03-18T15:34:27;19.10;87.40
11991;DHT22;6055;52.522;13.446;2023-03-18T15:36:55;18.80;88.80
11991;DHT22;6055;52.522;13.446;2023-03-18T15:41:58;18.20;90.10
11991;DHT22;6055;52.522;13.446;2023-03-18T15:44:30;18.00;90.70
11991;DHT22;6055;52.522;13.446;2023-03-18T15:47:07;17.80;90.80
11991;DHT22;6055;52.522;13.446;2023-03-18T15:49:53;17.70;91.30
11991;DHT22;6055;52.522;13.446;2023-03-18T15:52:25;17.60;91.70
11991;DHT22;6055;52.522;13.446;2023-03-18T15:54:51;17.60;91.80
11991;DHT22;6055;52.522;13.446;2023-03-18T15:57:30;17.50;92.00
11991;DHT22;6055;52.522;13.446;2023-03-18T15:59:57;17.50;92.20
11991;DHT22;6055;52.522;13.446;2023-03-18T16:02:23;17.40;92.20
11991;DHT22;6055;52.522;13.446;2023-03-18T16:04:49;17.30;92.50
11991;DHT22;6055;52.522;13.446;2023-03-18T16:07:17;17.30;92.70
11991;DHT22;6055;52.522;13.446;2023-03-18T16:09:43;17.30;92.70
11991;DHT22;6055;52.522;13.446;2023-03-18T16:12:17;17.30;92.90
11991;DHT22;6055;52.522;13.446;2023-03-18T16:14:46;17.30;92.90
11991;DHT22;6055;52.522;13.446;2023-03-18T16:17:17;17.20;93.10
11991;DHT22;6055;52.522;13.446;2023-03-18T16:19:43;17.20;93.00
11991;DHT22;6055;52.522;13.446;2023-03-18T16:22:11;17.10;93.10
11991;DHT22;6055;52.522;13.446;2023-03-18T16:24:40;17.10;93.40
11991;DHT22;6055;52.522;13.446;2023-03-18T16:27:19;17.00;93.50
11991;DHT22;6055;52.522;13.446;2023-03-18T16:29:47;16.90;93.70
11991;DHT22;6055;52.522;13.446;2023-03-18T16:32:13;16.90;93.80
11991;DHT22;6055;52.522;13.446;2023-03-18T16:34:39;17.00;93.70
11991;DHT22;6055;52.522;13.446;2023-03-18T16:37:05;17.20;93.70
11991;DHT22;6055;52.522;13.446;2023-03-18T16:39:33;17.30;93.40
11991;DHT22;6055;52.522;13.446;2023-03-18T16:42:00;17.30;93.20
11991;DHT22;6055;52.522;13.446;2023-03-18T16:44:26;17.30;93.30
11991;DHT22;6055;52.522;13.446;2023-03-18T16:46:54;17.20;93.50
11991;DHT22;6055;52.522;13.446;2023-03-18T16:49:29;17.10;93.60
11991;DHT22;6055;52.522;13.446;2023-03-18T16:51:55;17.10;93.80
11991;DHT22;6055;52.522;13.446;2023-03-18T16:54:24;17.00;93.90
11991;DHT22;6055;52.522;13.446;2023-03-18T16:56:52;16.90;94.10
11991;DHT22;6055;52.522;13.446;2023-03-18T16:59:18;16.90;94.20
11991;DHT22;6055;52.522;13.446;2023-03-18T17:01:44;16.70;94.40
11991;DHT22;6055;52.522;13.446;2023-03-18T17:04:20;16.60;94.60
11991;DHT22;6055;52.522;13.446;2023-03-18T17:06:46;16.50;95.10
11991;DHT22;6055;52.522;13.446;2023-03-18T17:09:11;16.40;95.10
11991;DHT22;6055;52.522;13.446;2023-03-18T17:11:37;16.30;95.50
11991;DHT22;6055;52.522;13.446;2023-03-18T17:14:03;16.20;95.80
11991;DHT22;6055;52.522;13.446;2023-03-18T17:16:28;16.10;95.90
11991;DHT22;6055;52.522;13.446;2023-03-18T17:18:56;16.00;96.20
11991;DHT22;6055;52.522;13.446;2023-03-18T17:21:23;16.10;96.40
11991;DHT22;6055;52.522;13.446;2023-03-18T17:23:52;16.00;96.40
11991;DHT22;6055;52.522;13.446;2023-03-18T17:26:18;16.00;96.40
11991;DHT22;6055;52.522;13.446;2023-03-18T17:28:46;15.90;96.70
11991;DHT22;6055;52.522;13.446;2023-03-18T17:31:13;15.90;96.90
11991;DHT22;6055;52.522;13.446;2023-03-18T17:33:38;15.80;96.90
11991;DHT22;6055;52.522;13.446;2023-03-18T17:36:05;15.70;97.10
11991;DHT22;6055;52.522;13.446;2023-03-18T17:38:32;15.70;97.50
11991;DHT22;6055;52.522;13.446;2023-03-18T17:41:00;15.60;97.50
11991;DHT22;6055;52.522;13.446;2023-03-18T17:43:34;15.60;97.80
11991;DHT22;6055;52.522;13.446;2023-03-18T17:46:01;15.60;97.80
11991;DHT22;6055;52.522;13.446;2023-03-18T17:48:32;15.60;97.90
11991;DHT22;6055;52.522;13.446;2023-03-18T17:50:59;15.50;98.00